Descanso, CA (91916)

5:07 PM PDT on May 22, 2015 (GMT -0700)
MesoWest | | Change Station
CLOSE
Current Station
Personal Weather Station
Location: Descanso, CA
Elevation: 3706 ft
Nearby Weather Stations

Elev 3706 ft 32.94 °N, 116.64 °W | Updated 37 minutes ago

Overcast
Overcast
47 °F
Feels Like 44 °F
N
6
Wind Variable Wind from West
Gusts 13.0 mph

Today
High -- | Low -- °F
--% Chance of Precip.
Yesterday
High -- | Low -- °F
Precip. -- in
5:43 AM 7:43 PM
Waxing Crescent, 25% visible
Pressure 29.95 in
Visibility -9999.0 miles
Clouds
Windchill 44 °F
Dew Point 47 °F
Humidity 99%
Rainfall in
Snow Depth Not available.
UV Not available.
Pollen 4.00 out of 12
Air Quality Not available.
Flu Activity Sporadic
METAR KCZZ 222352Z AUTO 23012G20KT 12/07 A3000 RMK AO1 SLP142 T01220072 10133 20117 55002

More Conditions Fewer Conditions

Pressure 29.95 in
Visibility -9999.0 miles
Clouds
Windchill 44 °F
Dew Point 47 °F
Humidity 99%
Rainfall in
Snow Depth Not available.
UV Not available.
Pollen 4.00 out of 12
Air Quality Not available.
Flu Activity Sporadic
METAR KCZZ 222352Z AUTO 23012G20KT 12/07 A3000 RMK AO1 SLP142 T01220072 10133 20117 55002

More Conditions Fewer Conditions

10-Day Weather Forecast

Almanac

Astronomy

May. 22, 2015 Rise Set
Actual Time
Civil Twilight
Nautical Twilight
Astronomical Twilight
Moon
Length of Visible Light
Length of Day
Tomorrow will be .
, % of the Moon is Illuminated

Today's Extremes

State Highs State Lows

Community

WunderPhotos

Upload Photos

1,823,339 photos uploaded!

WunderBlogs® & News

Nearby

Air Quality

  Air Quality AQ Index Pollutant
Not available.

Snow Depth

Station Depth Elevation

Earthquake Activity

City Distance Mag. Time & Date
Minimum magnitude displayed is 2.5.

Coastal Water Temperatures

Place Temperature

Stations

Nearby Weather Stations

Station Location Temp. Windchill Dew Point Humidity Wind Precip. Elev Updated Type